METAR AND TAF INFORMATION
METAR FOR PABR
ADDS - METARS form results

(0448 UTC 06 April 2020)
Data provider http://aviationweather.gov/metar/data/
 
METAR text: PABR 060425Z 04010KT 2SM -SN BR OVC008 M06/M07 A2915 RMK AO2 P0000 T10561072
Conditions at: PABR (UTQIAGVIK , AK, US) observed 0425 UTC 06 April 2020
Temperature: -5.6°C (22°F)
Dewpoint: -7.2°C (19°F) [RH = 88%]
Pressure (altimeter): 29.15 inches Hg (987.2 mb)
Winds: from the NE (40 degrees) at 12 MPH (10 knots; 5.1 m/s)
Visibility: 2.00 miles (3.22 km)
Ceiling: 800 feet AGL
Clouds: overcast cloud deck at 800 feet AGL
Weather: -SN BR  (light snow, mist)

METAR text: PABR 060357Z 05012KT 1SM R07/P6000FT -SN BR OVC009 M06/M07 A2914 RMK AO2 P0000 T10561072
Conditions at: PABR (UTQIAGVIK , AK, US) observed 0357 UTC 06 April 2020
Temperature: -5.6°C (22°F)
Dewpoint: -7.2°C (19°F) [RH = 88%]
Pressure (altimeter): 29.14 inches Hg (986.9 mb)
Winds: from the NE (50 degrees) at 14 MPH (12 knots; 6.2 m/s)
Visibility: 1.00 miles (1.61 km)
Ceiling: 900 feet AGL
Clouds: overcast cloud deck at 900 feet AGL
Weather: -SN BR  (light snow, mist)

METAR text: PABR 060353Z 05011KT 3/4SM R07/P6000FT -SN BR OVC010 M05/M07 A2914 RMK AO2 SLP870 P0000 T10501067
Conditions at: PABR (UTQIAGVIK , AK, US) observed 0353 UTC 06 April 2020
Temperature: -5.0°C (23°F)
Dewpoint: -6.7°C (20°F) [RH = 88%]
Pressure (altimeter): 29.14 inches Hg (986.9 mb)
[Sea-level pressure:  987.0 mb]
Winds: from the NE (50 degrees) at 13 MPH (11 knots; 5.7 m/s)
Visibility: 0.75 miles (1.21 km)
Ceiling: 1000 feet AGL
Clouds: overcast cloud deck at 1000 feet AGL
Weather: -SN BR  (light snow, mist)

Forecast for: PABR (UTQIAGVIK , AK, US)
Text: PABR 060330Z 0604/0624 04011KT 1/2SM -SN FZFG BKN010 OVC035
Forecast period: 0400 to 0500 UTC 06 April 2020
Forecast type: FROM: standard forecast or significant change
Winds: from the NE (40 degrees) at 13 MPH (11 knots; 5.7 m/s)
Visibility: 0.50 miles (0.80 km)
Ceiling: 1000 feet AGL
Clouds: broken clouds at 1000 feet AGL
overcast cloud deck at 3500 feet AGL
Weather: -SN FZFG  (light snow, freezing fog)
Text: FM060500 35012G18KT 1 1/2SM -SN BR OVC015
Forecast period: 0500 to 0900 UTC 06 April 2020
Forecast type: FROM: standard forecast or significant change
Winds: from the N (350 degrees) at 14 MPH (12 knots; 6.2 m/s)
gusting to 21 MPH (18 knots; 9.3 m/s)
Visibility: 1.50 miles (2.41 km)
Ceiling: 1500 feet AGL
Clouds: overcast cloud deck at 1500 feet AGL
Weather: -SN BR  (light snow, mist)
Text: FM060900 33017G23KT 1SM -SN BR OVC008
Forecast period: 0900 to 1800 UTC 06 April 2020
Forecast type: FROM: standard forecast or significant change
Winds: from the NNW (330 degrees) at 20 MPH (17 knots; 8.7 m/s)
gusting to 26 MPH (23 knots; 11.8 m/s)
Visibility: 1.00 miles (1.61 km)
Ceiling: 800 feet AGL
Clouds: overcast cloud deck at 800 feet AGL
Weather: -SN BR  (light snow, mist)
Text: FM061800 31015KT 1 1/2SM -SN BR OVC015
Forecast period: 1800 UTC 06 April 2020 to 0000 UTC 07 April 2020
Forecast type: FROM: standard forecast or significant change
Winds: from the NW (310 degrees) at 17 MPH (15 knots; 7.7 m/s)
Visibility: 1.50 miles (2.41 km)
Ceiling: 1500 feet AGL
Clouds: overcast cloud deck at 1500 feet AGL
Weather: -SN BR  (light snow, mist)

 AIRPORT MAP

 RUNWAY INFORMATION
Runway 06 Runway length 6500 ft Runway width 150 ft
Runway elevation 44 ft Runway displaced threshold 0 ft Runway heading 90
Runway 24 Runway length 6500 ft Runway width 150 ft
Runway elevation 29 ft Runway displaced threshold 0 ft Runway heading 270

 AIRPORT FREQUENCIES
Type ASOS Name ASOS Frequency 132.15 MHZ
Type CNTR Name ANCHORAGE Frequency 135.3 MHZ
Type CTAF Name CTAF Frequency 123.6 MHZ
Type FSS Name BARROW RDO Frequency 122.2 MHZ

 AIRPORT NEAR NAVIGATION AIDS
Type VOR-DME Name Barrow Frequency 116200 KHZ
Type NDB Name Wiley Frequency 248 KHZ
Type NDB Name Browerville Frequency 281 KHZ



We are a FlightSim virtual group and are in no way affiliated with RavnAir Group.

Powered by Virtual Airlines Manager [v2.6.2]